X  Zatvori METAR podaci zračne luke     LDPL Pula Airport
Temperatura
9°C Temperatura
8°C Točka rosišta
94% Vlaga



Vjetar
0 M/S
1 MPS
2 KM/S
1 Čvorovi



70°
ISI
Trenutna situacija

Pretežno oblačno Pretežno oblačno
Tlak zraka 1012.92 (hPa) - 29.91 (inHg)
Vidljivost 6.2 (milje) - 10 (km)
Zračna luka
Kôd zračne luke LDPL

Lokacija: Pula Airport
Udaljenost: 39 (km)

Metar:
LDPL 070030Z 07001KT 9999 BKN015 OVC027 09/08 Q1013

Vrijeme: 07-12-2022 01:30 CET